createdAt,value
2023-03-27T00:01:47.796Z,1.71
2023-03-27T00:04:18.274Z,1.64
2023-03-27T00:06:49.082Z,1.93
2023-03-27T00:09:19.173Z,1.70
2023-03-27T00:11:48.101Z,1.75
2023-03-27T00:14:17.409Z,1.83
2023-03-27T00:16:46.391Z,1.91
2023-03-27T00:19:14.883Z,1.83
2023-03-27T00:21:45.080Z,2.02
2023-03-27T00:24:15.961Z,1.98
2023-03-27T00:26:44.843Z,1.95
2023-03-27T00:29:13.945Z,1.87
2023-03-27T00:31:42.312Z,1.87
2023-03-27T00:34:12.303Z,1.69
2023-03-27T00:36:40.917Z,1.47
2023-03-27T00:39:10.490Z,1.49
2023-03-27T00:41:40.368Z,1.29
2023-03-27T00:44:27.031Z,1.46
2023-03-27T00:46:57.672Z,1.12
2023-03-27T00:49:29.764Z,1.55
2023-03-27T00:51:59.142Z,1.46
2023-03-27T00:54:31.792Z,1.31
2023-03-27T00:57:06.349Z,1.27
2023-03-27T00:59:40.797Z,1.27
2023-03-27T01:02:10.991Z,1.09
2023-03-27T01:04:41.300Z,1.02
2023-03-27T01:07:11.422Z,1.04
2023-03-27T01:09:40.948Z,1.05
2023-03-27T01:12:28.745Z,0.97
2023-03-27T01:15:13.227Z,0.79
2023-03-27T01:18:02.552Z,0.56
2023-03-27T01:21:12.413Z,0.64
2023-03-27T01:24:28.637Z,0.74
2023-03-27T01:27:03.875Z,0.63
2023-03-27T01:30:02.743Z,0.43
2023-03-27T01:33:28.606Z,0.64
2023-03-27T01:36:34.793Z,0.38
2023-03-27T01:39:34.588Z,0.51
2023-03-27T01:42:20.034Z,0.45
2023-03-27T01:44:55.990Z,0.39
2023-03-27T01:47:37.788Z,0.30
2023-03-27T01:50:20.000Z,0.34
2023-03-27T01:52:56.681Z,0.28
2023-03-27T01:55:32.324Z,0.18
2023-03-27T01:58:06.300Z,0.02
2023-03-27T02:00:51.603Z,0.30
2023-03-27T02:03:27.700Z,0.36
2023-03-27T02:06:01.560Z,0.26
2023-03-27T02:08:36.190Z,0.38
2023-03-27T02:11:18.125Z,0.28
2023-03-27T02:13:52.018Z,0.30
2023-03-27T02:16:26.736Z,0.15
2023-03-27T02:19:00.844Z,0.02
2023-03-27T02:21:31.287Z,0.23
2023-03-27T02:24:03.611Z,0.13
2023-03-27T02:26:34.408Z,0.47
2023-03-27T02:29:36.589Z,0.37
2023-03-27T02:32:20.939Z,0.37
2023-03-27T02:35:05.405Z,0.28
2023-03-27T02:37:49.793Z,0.29
2023-03-27T02:40:46.332Z,0.32
2023-03-27T02:43:40.334Z,0.38
2023-03-27T02:46:21.664Z,0.29
2023-03-27T02:48:53.945Z,0.35
2023-03-27T02:51:29.347Z,0.40
2023-03-27T02:54:03.884Z,-0.03
2023-03-27T02:56:41.258Z,0.38
2023-03-27T02:59:14.452Z,0.21
2023-03-27T03:01:45.501Z,0.17
2023-03-27T03:04:26.217Z,0.50
2023-03-27T03:07:16.443Z,0.49
2023-03-27T03:09:45.988Z,0.50
2023-03-27T03:12:14.396Z,0.49
2023-03-27T03:14:46.890Z,0.61
2023-03-27T03:17:17.467Z,0.33
2023-03-27T03:19:46.890Z,0.34
2023-03-27T03:22:15.986Z,0.32
2023-03-27T03:24:44.981Z,0.41
2023-03-27T03:27:21.259Z,0.56
2023-03-27T03:30:09.668Z,0.66
2023-03-27T03:32:47.416Z,0.60
2023-03-27T03:35:16.388Z,0.61
2023-03-27T03:37:51.199Z,0.49
2023-03-27T03:40:22.202Z,0.30
2023-03-27T03:42:55.911Z,0.56
2023-03-27T03:45:29.878Z,0.39
2023-03-27T03:47:58.605Z,0.28
2023-03-27T03:50:27.169Z,0.34
2023-03-27T03:52:55.581Z,0.16
2023-03-27T03:55:25.638Z,0.02
2023-03-27T03:57:54.061Z,-0.13
2023-03-27T04:00:29.352Z,-0.09
2023-03-27T04:02:59.493Z,-0.32
2023-03-27T04:05:28.276Z,-0.21
2023-03-27T04:08:03.143Z,-0.18
2023-03-27T04:10:51.777Z,-0.23
2023-03-27T04:13:34.381Z,-0.23
2023-03-27T04:16:14.886Z,-0.34
2023-03-27T04:18:50.709Z,-0.22
2023-03-27T04:21:22.085Z,-0.35
2023-03-27T04:23:51.334Z,-0.00
2023-03-27T04:26:27.709Z,-0.09
2023-03-27T04:29:14.400Z,-0.09
2023-03-27T04:32:02.633Z,-0.15
2023-03-27T04:34:43.441Z,-0.14
2023-03-27T04:37:45.710Z,-0.48
2023-03-27T04:40:49.287Z,-0.24
2023-03-27T04:43:19.011Z,-0.37
2023-03-27T04:45:48.405Z,-0.20
2023-03-27T04:48:18.995Z,-0.52
2023-03-27T04:50:51.781Z,-0.18
2023-03-27T04:53:38.116Z,-0.26
2023-03-27T04:56:09.591Z,-0.27
2023-03-27T04:58:41.680Z,-0.02
2023-03-27T05:01:14.507Z,-0.27
2023-03-27T05:04:16.773Z,-0.77
2023-03-27T05:07:05.921Z,-0.85
2023-03-27T05:09:34.343Z,-0.71
2023-03-27T05:12:03.273Z,-0.47
2023-03-27T05:14:38.199Z,-0.40
2023-03-27T05:17:10.519Z,-0.39
2023-03-27T05:19:43.463Z,-0.40
2023-03-27T05:22:12.079Z,-0.39
2023-03-27T05:24:49.950Z,-0.54
2023-03-27T05:27:19.405Z,-0.24
2023-03-27T05:29:51.285Z,0.06
2023-03-27T05:32:19.652Z,-0.15
2023-03-27T05:34:54.639Z,-0.42
2023-03-27T05:37:26.361Z,-0.92
2023-03-27T05:40:25.181Z,-1.02
2023-03-27T05:42:57.083Z,-1.76
2023-03-27T05:45:30.151Z,-2.95
2023-03-27T05:48:00.975Z,-1.47
2023-03-27T05:50:34.149Z,-1.80
2023-03-27T05:53:08.247Z,-2.02
2023-03-27T05:55:40.419Z,-1.24
2023-03-27T05:58:10.238Z,-1.38
2023-03-27T06:00:42.186Z,-1.43
2023-03-27T06:03:14.416Z,-1.27
2023-03-27T06:06:01.059Z,-0.73
2023-03-27T06:08:36.759Z,-0.83
2023-03-27T06:11:13.471Z,-0.76
2023-03-27T06:13:48.819Z,-0.99
2023-03-27T06:16:21.636Z,-1.16
2023-03-27T06:19:02.936Z,-1.09
2023-03-27T06:21:33.342Z,-1.10
2023-03-27T06:24:04.069Z,-0.86
2023-03-27T06:26:32.684Z,-0.63
2023-03-27T06:29:08.585Z,-0.70
2023-03-27T06:31:40.374Z,-0.54
2023-03-27T06:34:15.211Z,-0.25
2023-03-27T06:37:05.398Z,-0.04
2023-03-27T06:39:41.082Z,0.25
2023-03-27T06:42:10.641Z,0.33
2023-03-27T06:44:51.184Z,0.47
2023-03-27T06:47:51.673Z,-0.05
2023-03-27T06:50:40.742Z,0.05
2023-03-27T06:53:25.720Z,0.33
2023-03-27T06:55:54.992Z,0.29
2023-03-27T06:58:25.157Z,0.17
2023-03-27T07:00:53.720Z,0.04
2023-03-27T07:03:24.069Z,0.01
2023-03-27T07:06:19.364Z,0.46
2023-03-27T07:08:57.510Z,0.35
2023-03-27T07:11:27.057Z,0.36
2023-03-27T07:13:57.974Z,0.45
2023-03-27T07:16:28.517Z,0.50
2023-03-27T07:19:00.892Z,0.25
2023-03-27T07:21:32.276Z,0.40
2023-03-27T07:24:03.595Z,0.38
2023-03-27T07:26:35.049Z,0.47
2023-03-27T07:29:10.884Z,0.40
2023-03-27T07:31:55.385Z,0.35
2023-03-27T07:34:39.676Z,0.50
2023-03-27T07:37:11.519Z,0.92
2023-03-27T07:39:50.481Z,1.08
2023-03-27T07:42:19.888Z,0.88
2023-03-27T07:45:04.640Z,1.13
2023-03-27T07:47:33.665Z,1.23
2023-03-27T07:50:03.435Z,0.99
2023-03-27T07:52:34.811Z,1.23
2023-03-27T07:55:09.196Z,1.70
2023-03-27T07:57:59.938Z,1.66
2023-03-27T08:00:33.948Z,1.90
2023-03-27T08:03:14.389Z,1.95
2023-03-27T08:05:58.923Z,2.46
2023-03-27T08:08:29.910Z,2.45
2023-03-27T08:11:03.572Z,2.80
2023-03-27T08:13:37.423Z,2.24
2023-03-27T08:16:13.524Z,1.15
2023-03-27T08:18:43.676Z,1.11
2023-03-27T08:21:13.678Z,0.96
2023-03-27T08:23:45.656Z,1.01
2023-03-27T08:26:34.025Z,1.34
2023-03-27T08:29:09.647Z,1.46
2023-03-27T08:31:39.551Z,1.49
2023-03-27T08:34:08.771Z,1.80
2023-03-27T08:36:45.669Z,2.18
2023-03-27T08:39:15.786Z,2.10
2023-03-27T08:42:08.935Z,1.90
2023-03-27T08:44:41.156Z,1.69
2023-03-27T08:47:20.759Z,1.55
2023-03-27T08:49:59.471Z,1.79
2023-03-27T08:53:01.206Z,1.82
2023-03-27T08:55:41.706Z,1.97
2023-03-27T08:58:26.159Z,2.28
2023-03-27T09:01:19.035Z,2.75
2023-03-27T09:03:58.273Z,2.85
2023-03-27T09:06:34.541Z,3.18
2023-03-27T09:09:12.807Z,3.25
2023-03-27T09:12:00.934Z,3.41
2023-03-27T09:14:39.893Z,3.36
2023-03-27T09:17:18.797Z,3.81
2023-03-27T09:19:54.823Z,3.70
2023-03-27T09:22:32.798Z,3.90
2023-03-27T09:25:23.351Z,1.83
2023-03-27T09:28:22.630Z,1.47
2023-03-27T09:31:01.880Z,1.05
2023-03-27T09:33:41.474Z,1.04
2023-03-27T09:36:11.458Z,0.92
2023-03-27T09:38:44.686Z,0.73
2023-03-27T09:41:26.551Z,0.72
2023-03-27T09:44:02.614Z,0.79
2023-03-27T09:46:37.266Z,1.67
2023-03-27T09:49:14.122Z,2.05
2023-03-27T09:51:49.018Z,2.32
2023-03-27T09:54:56.145Z,2.63
2023-03-27T09:57:37.584Z,3.37
2023-03-27T10:00:27.035Z,3.52
2023-03-27T10:03:05.929Z,3.87
2023-03-27T10:05:38.925Z,4.37
2023-03-27T10:08:32.492Z,3.97
2023-03-27T10:11:20.716Z,3.71
2023-03-27T10:13:53.314Z,3.64
2023-03-27T10:16:25.055Z,3.52
2023-03-27T10:19:23.477Z,2.92
2023-03-27T10:21:53.314Z,2.20
2023-03-27T10:24:34.204Z,2.59
2023-03-27T10:27:21.424Z,2.16
2023-03-27T10:30:32.168Z,2.04
2023-03-27T10:33:29.852Z,2.44
2023-03-27T10:36:13.331Z,2.83
2023-03-27T10:38:44.038Z,2.64
2023-03-27T10:41:34.369Z,2.34
2023-03-27T10:44:08.225Z,2.87
2023-03-27T10:46:41.113Z,2.62
2023-03-27T10:49:28.814Z,2.99
2023-03-27T10:52:14.859Z,2.77
2023-03-27T10:55:18.981Z,3.45
2023-03-27T10:57:54.581Z,3.49
2023-03-27T11:00:36.711Z,3.82
2023-03-27T11:03:17.797Z,3.77
2023-03-27T11:05:56.367Z,3.74
2023-03-27T11:08:58.369Z,3.65
2023-03-27T11:11:31.975Z,3.05
2023-03-27T11:14:07.901Z,3.19
2023-03-27T11:16:41.125Z,2.78
2023-03-27T11:19:45.070Z,3.07
2023-03-27T11:22:34.479Z,3.25
2023-03-27T11:25:21.022Z,3.53
2023-03-27T11:28:02.601Z,3.70
2023-03-27T11:30:44.417Z,3.94
2023-03-27T11:33:33.330Z,4.18
2023-03-27T11:36:34.952Z,4.13
2023-03-27T11:39:23.339Z,4.34
2023-03-27T11:41:58.365Z,4.11
2023-03-27T11:44:30.376Z,3.54
2023-03-27T11:47:30.932Z,4.60
2023-03-27T11:50:26.164Z,4.55
2023-03-27T11:53:24.951Z,4.66
2023-03-27T11:56:31.887Z,4.89
2023-03-27T11:59:39.489Z,5.39
2023-03-27T12:02:46.780Z,4.95
2023-03-27T12:05:26.147Z,4.84
2023-03-27T12:08:11.619Z,4.83
2023-03-27T12:10:48.767Z,4.95
2023-03-27T12:14:18.555Z,4.83
2023-03-27T12:17:43.496Z,4.63
2023-03-27T12:20:56.705Z,4.72
2023-03-27T12:24:31.561Z,4.75
2023-03-27T12:27:50.802Z,5.20
2023-03-27T12:30:51.163Z,4.66
2023-03-27T12:33:38.967Z,4.26
2023-03-27T12:36:13.570Z,4.22
2023-03-27T12:38:45.047Z,4.23
2023-03-27T12:41:25.589Z,3.01
2023-03-27T12:44:04.699Z,4.77
2023-03-27T12:46:40.061Z,4.03
2023-03-27T12:49:47.443Z,3.67
2023-03-27T12:52:25.429Z,3.55
2023-03-27T12:55:33.357Z,4.19
2023-03-27T12:58:04.727Z,4.64
2023-03-27T13:01:00.899Z,4.70
2023-03-27T13:04:32.884Z,5.52
2023-03-27T13:07:14.077Z,5.77
2023-03-27T13:10:18.820Z,5.53
2023-03-27T13:13:09.541Z,5.47
2023-03-27T13:16:07.775Z,5.05
2023-03-27T13:18:59.891Z,4.83
2023-03-27T13:21:41.565Z,5.22
2023-03-27T13:24:44.944Z,5.33
2023-03-27T13:27:35.740Z,4.78
2023-03-27T13:30:08.078Z,5.07
2023-03-27T13:33:16.482Z,5.38
2023-03-27T13:36:05.988Z,5.32
2023-03-27T13:39:18.551Z,4.45
2023-03-27T13:42:03.153Z,5.45
2023-03-27T13:44:54.548Z,5.69
2023-03-27T13:48:13.201Z,5.53
2023-03-27T13:51:32.916Z,4.95
2023-03-27T13:54:48.625Z,5.27
2023-03-27T13:57:36.043Z,6.48
2023-03-27T14:00:34.897Z,6.42
2023-03-27T14:03:50.319Z,5.82
2023-03-27T14:06:52.842Z,5.71
2023-03-27T14:09:56.894Z,5.63
2023-03-27T14:12:58.015Z,5.68
2023-03-27T14:16:51.483Z,6.06
2023-03-27T14:19:42.480Z,6.42
2023-03-27T14:22:26.411Z,6.32
2023-03-27T14:25:02.795Z,5.76
2023-03-27T14:27:46.854Z,5.98
2023-03-27T14:30:23.891Z,4.80
2023-03-27T14:33:11.778Z,4.50
2023-03-27T14:35:45.950Z,4.71
2023-03-27T14:38:22.944Z,5.04
2023-03-27T14:40:54.680Z,5.23
2023-03-27T14:43:35.700Z,5.16
2023-03-27T14:46:07.333Z,5.17
2023-03-27T14:48:38.930Z,4.54
2023-03-27T14:51:14.589Z,4.31
2023-03-27T14:53:50.952Z,4.43
2023-03-27T14:56:37.837Z,4.33
2023-03-27T14:59:35.660Z,3.69
2023-03-27T15:02:20.620Z,2.91
2023-03-27T15:04:53.894Z,3.35
2023-03-27T15:07:28.694Z,3.40
2023-03-27T15:10:28.692Z,3.56
2023-03-27T15:13:18.001Z,2.66
2023-03-27T15:15:56.892Z,3.36
2023-03-27T15:18:40.070Z,3.83
2023-03-27T15:21:17.082Z,3.09
2023-03-27T15:24:05.676Z,3.38
2023-03-27T15:26:36.731Z,3.58
2023-03-27T15:29:14.169Z,3.71
2023-03-27T15:32:11.891Z,3.52
2023-03-27T15:34:47.676Z,3.73
2023-03-27T15:37:23.335Z,3.05
2023-03-27T15:40:09.467Z,2.84
2023-03-27T15:42:48.235Z,2.53
2023-03-27T15:45:25.071Z,2.68
2023-03-27T15:48:06.887Z,3.63
2023-03-27T15:50:35.729Z,3.86
2023-03-27T15:53:04.411Z,4.22
2023-03-27T15:55:38.066Z,4.42
2023-03-27T15:58:23.216Z,4.73
2023-03-27T16:00:55.061Z,4.34
2023-03-27T16:03:29.391Z,3.33
2023-03-27T16:06:00.153Z,3.39
2023-03-27T16:08:34.838Z,3.34
2023-03-27T16:11:06.347Z,2.39
2023-03-27T16:13:37.426Z,3.21
2023-03-27T16:16:26.064Z,2.09
2023-03-27T16:18:59.096Z,2.42
2023-03-27T16:21:28.828Z,2.77
2023-03-27T16:23:57.365Z,2.44
2023-03-27T16:26:30.600Z,2.09
2023-03-27T16:29:04.873Z,2.95
2023-03-27T16:31:33.568Z,3.16
2023-03-27T16:34:12.889Z,2.91
2023-03-27T16:36:51.568Z,1.81
2023-03-27T16:39:20.039Z,1.92
2023-03-27T16:41:48.826Z,1.45
2023-03-27T16:44:17.412Z,2.30
2023-03-27T16:46:46.494Z,1.61
2023-03-27T16:49:16.375Z,1.76
2023-03-27T16:51:45.039Z,2.64
2023-03-27T16:54:14.170Z,1.96
2023-03-27T16:56:42.558Z,2.50
2023-03-27T16:59:11.438Z,2.15
2023-03-27T17:01:40.881Z,1.92
2023-03-27T17:04:09.643Z,1.63
2023-03-27T17:06:40.294Z,2.76
2023-03-27T17:09:11.099Z,2.34
2023-03-27T17:11:40.927Z,2.26
2023-03-27T17:14:10.672Z,2.43
2023-03-27T17:16:40.263Z,1.73
2023-03-27T17:19:10.383Z,2.09
2023-03-27T17:21:43.420Z,1.35
2023-03-27T17:24:12.219Z,2.20
2023-03-27T17:26:40.733Z,1.07
2023-03-27T17:29:11.391Z,1.98
2023-03-27T17:31:42.181Z,1.56
2023-03-27T17:34:13.902Z,1.09
2023-03-27T17:36:52.265Z,1.49
2023-03-27T17:39:26.952Z,1.94
2023-03-27T17:41:55.392Z,0.85
2023-03-27T17:44:24.467Z,1.92
2023-03-27T17:46:53.181Z,0.58
2023-03-27T17:49:23.198Z,1.01
2023-03-27T17:51:53.231Z,0.36
2023-03-27T17:54:27.545Z,1.61
2023-03-27T17:56:58.876Z,1.57
2023-03-27T17:59:27.836Z,0.59
2023-03-27T18:01:56.255Z,0.75
2023-03-27T18:04:32.646Z,1.39
2023-03-27T18:07:02.892Z,1.25
2023-03-27T18:09:37.021Z,1.17
2023-03-27T18:12:07.361Z,0.61
2023-03-27T18:14:38.915Z,1.13
2023-03-27T18:17:07.765Z,1.14
2023-03-27T18:19:40.222Z,0.22
2023-03-27T18:22:12.230Z,0.32
2023-03-27T18:24:40.695Z,0.48
2023-03-27T18:27:09.210Z,0.90
2023-03-27T18:29:38.329Z,0.97
2023-03-27T18:32:06.939Z,-0.32
2023-03-27T18:34:36.044Z,0.99
2023-03-27T18:37:08.876Z,0.22
2023-03-27T18:39:37.797Z,0.95
2023-03-27T18:42:06.886Z,0.65
2023-03-27T18:44:43.884Z,0.96
2023-03-27T18:47:13.471Z,0.94
2023-03-27T18:49:44.301Z,0.11
2023-03-27T18:52:14.841Z,-0.54
2023-03-27T18:54:43.507Z,-0.65
2023-03-27T18:57:12.847Z,-0.28
2023-03-27T18:59:41.247Z,0.51
2023-03-27T19:02:10.881Z,0.20
2023-03-27T19:04:39.336Z,-0.46
2023-03-27T19:07:08.824Z,-0.12
2023-03-27T19:09:41.692Z,-0.59
2023-03-27T19:12:11.251Z,0.40
2023-03-27T19:15:02.183Z,-0.78
2023-03-27T19:17:56.736Z,0.23
2023-03-27T19:20:47.585Z,0.38
2023-03-27T19:23:38.498Z,-1.06
2023-03-27T19:26:14.862Z,0.36
2023-03-27T19:28:47.502Z,-0.49
2023-03-27T19:31:16.899Z,-0.76
2023-03-27T19:33:45.747Z,-0.46
2023-03-27T19:36:17.311Z,-0.49
2023-03-27T19:38:45.932Z,-0.49
2023-03-27T19:41:15.694Z,0.06
2023-03-27T19:43:44.629Z,0.14
2023-03-27T19:46:16.486Z,-0.95
2023-03-27T19:48:53.079Z,0.28
2023-03-27T19:51:50.740Z,-0.16
2023-03-27T19:54:19.180Z,-0.11
2023-03-27T19:56:49.297Z,-0.44
2023-03-27T19:59:29.846Z,0.54
2023-03-27T20:01:59.538Z,0.45
2023-03-27T20:04:30.488Z,-0.45
2023-03-27T20:07:02.188Z,-0.96
2023-03-27T20:09:31.430Z,-0.21
2023-03-27T20:12:01.427Z,0.07
2023-03-27T20:14:33.174Z,0.10
2023-03-27T20:17:01.613Z,-0.56
2023-03-27T20:19:31.531Z,0.07
2023-03-27T20:22:07.702Z,-1.10
2023-03-27T20:24:36.369Z,-0.77
2023-03-27T20:27:07.179Z,-0.95
2023-03-27T20:29:36.877Z,-0.11
2023-03-27T20:32:08.218Z,-0.22
2023-03-27T20:34:38.403Z,-0.20
2023-03-27T20:37:12.716Z,-1.11
2023-03-27T20:39:44.652Z,-0.29
2023-03-27T20:42:16.877Z,-1.18
2023-03-27T20:44:46.989Z,-1.58
2023-03-27T20:47:21.363Z,-0.35
2023-03-27T20:49:50.147Z,-0.50
2023-03-27T20:52:22.695Z,-0.53
2023-03-27T20:54:51.519Z,-1.56
2023-03-27T20:57:22.786Z,-1.15
2023-03-27T20:59:51.470Z,-0.77
2023-03-27T21:02:22.184Z,-0.75
2023-03-27T21:04:51.142Z,-1.53
2023-03-27T21:07:19.602Z,-0.79
2023-03-27T21:09:48.309Z,-1.72
2023-03-27T21:12:17.082Z,-0.80
2023-03-27T21:14:47.167Z,-0.81
2023-03-27T21:17:16.405Z,-0.82
2023-03-27T21:19:49.556Z,-2.25
2023-03-27T21:22:18.129Z,-1.72
2023-03-27T21:24:46.550Z,-1.69
2023-03-27T21:27:17.045Z,-1.83
2023-03-27T21:29:47.293Z,-1.83
2023-03-27T21:32:18.198Z,-1.04
2023-03-27T21:34:47.057Z,-1.90
2023-03-27T21:37:15.825Z,-1.02
2023-03-27T21:39:44.271Z,-1.42
2023-03-27T21:42:12.820Z,-1.48
2023-03-27T21:44:47.026Z,-1.96
2023-03-27T21:47:19.532Z,-1.23
2023-03-27T21:49:51.055Z,-1.25
2023-03-27T21:52:19.478Z,-2.16
2023-03-27T21:55:00.454Z,-2.48
2023-03-27T21:57:31.151Z,-2.25
2023-03-27T21:59:59.820Z,-2.27
2023-03-27T22:02:29.891Z,-1.53
2023-03-27T22:04:58.395Z,-1.92
2023-03-27T22:07:27.038Z,-2.35
2023-03-27T22:09:55.382Z,-1.70
2023-03-27T22:12:24.050Z,-1.67
2023-03-27T22:14:52.732Z,-1.72
2023-03-27T22:17:21.770Z,-2.78
2023-03-27T22:19:52.838Z,-2.72
2023-03-27T22:22:21.335Z,-2.15
2023-03-27T22:24:50.615Z,-2.09
2023-03-27T22:27:22.374Z,-2.65
2023-03-27T22:29:50.930Z,-2.09
2023-03-27T22:32:19.368Z,-3.06
2023-03-27T22:34:51.850Z,-2.71
2023-03-27T22:37:20.883Z,-2.00
2023-03-27T22:39:49.364Z,-3.36
2023-03-27T22:42:17.773Z,-3.17
2023-03-27T22:44:46.209Z,-3.83
2023-03-27T22:47:15.690Z,-2.16
2023-03-27T22:49:44.383Z,-3.03
2023-03-27T22:52:14.138Z,-3.40
2023-03-27T22:54:42.826Z,-2.85
2023-03-27T22:57:11.902Z,-3.09
2023-03-27T22:59:41.981Z,-2.14
2023-03-27T23:02:10.435Z,-2.55
2023-03-27T23:04:39.067Z,-2.14
2023-03-27T23:07:07.515Z,-2.97
2023-03-27T23:09:37.824Z,-2.33
2023-03-27T23:12:08.185Z,-3.07
2023-03-27T23:14:36.672Z,-2.57
2023-03-27T23:17:05.122Z,-3.17
2023-03-27T23:19:33.718Z,-2.19
2023-03-27T23:22:02.214Z,-2.25
2023-03-27T23:24:31.100Z,-3.44
2023-03-27T23:27:01.000Z,-2.32
2023-03-27T23:29:30.258Z,-3.19
2023-03-27T23:31:58.988Z,-2.38
2023-03-27T23:34:29.954Z,-3.40
2023-03-27T23:36:59.824Z,-2.37
2023-03-27T23:39:28.599Z,-2.38
2023-03-27T23:41:56.940Z,-2.70
2023-03-27T23:44:29.280Z,-3.55
2023-03-27T23:46:57.718Z,-2.63
2023-03-27T23:49:26.216Z,-2.50
2023-03-27T23:51:55.320Z,-3.29
2023-03-27T23:54:27.289Z,-3.82
2023-03-27T23:56:55.659Z,-3.72
2023-03-27T23:59:24.125Z,-3.54
